sensor_id;sensor_type;location;lat;lon;timestamp;pressure;altitude;pressure_sealevel;temperature;humidity
37486;BME280;23341;50.296;18.960;2023-02-10T00:03:40;55483.19;;;-144.43;67.76
37486;BME280;23341;50.296;18.960;2023-02-10T00:08:47;55503.19;;;-144.43;67.82
37486;BME280;23341;50.296;18.960;2023-02-10T00:13:52;55499.19;;;-144.43;68.55
37486;BME280;23341;50.296;18.960;2023-02-10T00:18:56;55567.25;;;-144.43;69.33
37486;BME280;23341;50.296;18.960;2023-02-10T00:24:01;55527.22;;;-144.43;69.52
37486;BME280;23341;50.296;18.960;2023-02-10T00:29:05;55595.28;;;-144.43;69.29
37486;BME280;23341;50.296;18.960;2023-02-10T00:34:10;55611.28;;;-144.43;69.55
37486;BME280;23341;50.296;18.960;2023-02-10T00:39:16;55669.34;;;-144.43;68.80
37486;BME280;23341;50.296;18.960;2023-02-10T00:44:20;55683.34;;;-144.43;68.86
37486;BME280;23341;50.296;18.960;2023-02-10T00:49:24;55731.41;;;-144.43;69.10
37486;BME280;23341;50.296;18.960;2023-02-10T00:54:29;55659.34;;;-144.43;69.40
37486;BME280;23341;50.296;18.960;2023-02-10T00:59:33;55673.34;;;-144.43;69.45
37486;BME280;23341;50.296;18.960;2023-02-10T01:04:37;55599.28;;;-144.43;69.39
37486;BME280;23341;50.296;18.960;2023-02-10T01:09:42;55715.38;;;-144.43;69.13
37486;BME280;23341;50.296;18.960;2023-02-10T01:14:46;55655.34;;;-144.43;69.41
37486;BME280;23341;50.296;18.960;2023-02-10T01:19:50;55621.31;;;-144.43;69.73
37486;BME280;23341;50.296;18.960;2023-02-10T01:24:56;55705.38;;;-144.43;69.11
37486;BME280;23341;50.296;18.960;2023-02-10T01:30:00;55619.31;;;-144.43;69.33
37486;BME280;23341;50.296;18.960;2023-02-10T01:35:06;55539.22;;;-144.43;69.35
37486;BME280;23341;50.296;18.960;2023-02-10T01:40:11;55647.31;;;-144.43;69.74
37486;BME280;23341;50.296;18.960;2023-02-10T01:45:18;55613.28;;;-144.43;69.27
37486;BME280;23341;50.296;18.960;2023-02-10T01:50:26;55583.25;;;-144.43;68.82
37486;BME280;23341;50.296;18.960;2023-02-10T01:55:35;55499.19;;;-144.43;68.42
37486;BME280;23341;50.296;18.960;2023-02-10T02:00:40;55473.16;;;-144.43;68.96
37486;BME280;23341;50.296;18.960;2023-02-10T02:05:44;55377.09;;;-144.43;69.47
37486;BME280;23341;50.296;18.960;2023-02-10T02:10:58;55425.13;;;-144.43;69.01
37486;BME280;23341;50.296;18.960;2023-02-10T02:16:11;55371.09;;;-144.43;69.08
37486;BME280;23341;50.296;18.960;2023-02-10T02:21:43;55355.06;;;-144.43;69.31
37486;BME280;23341;50.296;18.960;2023-02-10T02:32:37;55283.00;;;-144.43;69.93
37486;BME280;23341;50.296;18.960;2023-02-10T02:37:44;55275.00;;;-144.43;70.20
37486;BME280;23341;50.296;18.960;2023-02-10T02:42:50;55263.00;;;-144.43;70.56
37486;BME280;23341;50.296;18.960;2023-02-10T02:48:03;55234.97;;;-144.43;70.04
37486;BME280;23341;50.296;18.960;2023-02-10T02:53:17;55265.00;;;-144.43;70.39
37486;BME280;23341;50.296;18.960;2023-02-10T02:58:29;55196.94;;;-144.43;71.01
37486;BME280;23341;50.296;18.960;2023-02-10T03:09:24;55194.94;;;-144.43;72.21
37486;BME280;23341;50.296;18.960;2023-02-10T03:14:28;55118.88;;;-144.43;71.89
37486;BME280;23341;50.296;18.960;2023-02-10T03:19:31;55146.91;;;-144.43;72.65
37486;BME280;23341;50.296;18.960;2023-02-10T03:24:37;55064.84;;;-144.43;72.79
37486;BME280;23341;50.296;18.960;2023-02-10T03:29:41;55062.84;;;-144.43;72.72
37486;BME280;23341;50.296;18.960;2023-02-10T03:34:45;55078.84;;;-144.43;72.75
37486;BME280;23341;50.296;18.960;2023-02-10T03:39:50;55090.84;;;-144.43;72.63
37486;BME280;23341;50.296;18.960;2023-02-10T03:44:54;54968.78;;;-144.43;72.96
37486;BME280;23341;50.296;18.960;2023-02-10T03:49:58;55064.84;;;-144.43;72.46
37486;BME280;23341;50.296;18.960;2023-02-10T03:55:03;55080.84;;;-144.43;72.08
37486;BME280;23341;50.296;18.960;2023-02-10T04:00:08;54980.78;;;-144.43;72.29
37486;BME280;23341;50.296;18.960;2023-02-10T04:05:14;55056.84;;;-144.43;72.03
37486;BME280;23341;50.296;18.960;2023-02-10T04:10:20;54918.72;;;-144.43;72.29
37486;BME280;23341;50.296;18.960;2023-02-10T04:15:24;54872.69;;;-144.43;72.83
37486;BME280;23341;50.296;18.960;2023-02-10T04:20:27;54938.75;;;-144.43;71.23
37486;BME280;23341;50.296;18.960;2023-02-10T04:25:32;54950.75;;;-144.43;71.01
37486;BME280;23341;50.296;18.960;2023-02-10T04:30:36;54922.72;;;-144.43;70.46
37486;BME280;23341;50.296;18.960;2023-02-10T04:35:40;54878.69;;;-144.43;70.61
37486;BME280;23341;50.296;18.960;2023-02-10T04:40:48;54834.66;;;-144.43;70.34
37486;BME280;23341;50.296;18.960;2023-02-10T04:45:51;54742.59;;;-144.43;70.80
37486;BME280;23341;50.296;18.960;2023-02-10T04:50:55;54806.66;;;-144.43;69.72
37486;BME280;23341;50.296;18.960;2023-02-10T04:56:01;54786.63;;;-144.43;70.17
37486;BME280;23341;50.296;18.960;2023-02-10T05:01:06;54764.63;;;-144.43;70.08
37486;BME280;23341;50.296;18.960;2023-02-10T05:06:11;54746.63;;;-144.43;70.28
37486;BME280;23341;50.296;18.960;2023-02-10T05:11:17;54738.59;;;-144.43;69.91
37486;BME280;23341;50.296;18.960;2023-02-10T05:16:21;54700.59;;;-144.43;69.65
37486;BME280;23341;50.296;18.960;2023-02-10T05:21:25;54686.56;;;-144.43;70.65
37486;BME280;23341;50.296;18.960;2023-02-10T05:26:30;54658.56;;;-144.43;70.60
37486;BME280;23341;50.296;18.960;2023-02-10T05:31:34;54574.50;;;-144.43;70.83
37486;BME280;23341;50.296;18.960;2023-02-10T05:36:38;54598.50;;;-144.43;71.11
37486;BME280;23341;50.296;18.960;2023-02-10T05:41:43;54608.53;;;-144.43;70.41
37486;BME280;23341;50.296;18.960;2023-02-10T05:46:47;54566.50;;;-144.43;70.44
37486;BME280;23341;50.296;18.960;2023-02-10T05:51:51;54626.53;;;-144.43;70.49
37486;BME280;23341;50.296;18.960;2023-02-10T05:56:56;54628.53;;;-144.43;70.37
37486;BME280;23341;50.296;18.960;2023-02-10T06:02:00;54578.50;;;-144.43;70.03
37486;BME280;23341;50.296;18.960;2023-02-10T06:07:04;54592.50;;;-144.43;70.79
37486;BME280;23341;50.296;18.960;2023-02-10T06:12:10;54610.53;;;-144.43;70.45
37486;BME280;23341;50.296;18.960;2023-02-10T06:17:13;54610.53;;;-144.43;70.92
37486;BME280;23341;50.296;18.960;2023-02-10T06:22:17;54626.53;;;-144.43;70.77
37486;BME280;23341;50.296;18.960;2023-02-10T06:27:22;54626.53;;;-144.43;70.98
37486;BME280;23341;50.296;18.960;2023-02-10T06:32:26;54730.59;;;-144.43;70.53
37486;BME280;23341;50.296;18.960;2023-02-10T06:37:30;54618.53;;;-144.43;71.27
37486;BME280;23341;50.296;18.960;2023-02-10T06:42:35;54742.59;;;-144.43;70.68
37486;BME280;23341;50.296;18.960;2023-02-10T06:47:39;54684.56;;;-144.43;71.25
37486;BME280;23341;50.296;18.960;2023-02-10T06:52:43;54786.63;;;-144.43;70.97
37486;BME280;23341;50.296;18.960;2023-02-10T06:57:48;54836.69;;;-144.43;70.38
37486;BME280;23341;50.296;18.960;2023-02-10T07:02:52;54798.66;;;-144.43;70.18
37486;BME280;23341;50.296;18.960;2023-02-10T07:07:57;54830.66;;;-144.43;70.00
37486;BME280;23341;50.296;18.960;2023-02-10T07:13:04;54902.72;;;-144.43;69.48
37486;BME280;23341;50.296;18.960;2023-02-10T07:18:08;55347.06;;;-144.43;67.91
37486;BME280;23341;50.296;18.960;2023-02-10T07:23:12;56508.19;;;-144.43;59.30
37486;BME280;23341;50.296;18.960;2023-02-10T07:28:20;57223.06;;;-144.43;54.31
37486;BME280;23341;50.296;18.960;2023-02-10T07:33:23;57335.22;;;-144.43;51.59
37486;BME280;23341;50.296;18.960;2023-02-10T07:38:27;57815.88;;;-144.43;50.39
37486;BME280;23341;50.296;18.960;2023-02-10T07:43:33;57549.50;;;-144.43;50.95
37486;BME280;23341;50.296;18.960;2023-02-10T07:48:43;57128.94;;;-144.43;51.94
37486;BME280;23341;50.296;18.960;2023-02-10T07:53:46;57847.94;;;-144.43;51.31
37486;BME280;23341;50.296;18.960;2023-02-10T07:58:51;57445.34;;;-144.43;52.16
37486;BME280;23341;50.296;18.960;2023-02-10T08:03:55;58328.66;;;-144.43;49.54
37486;BME280;23341;50.296;18.960;2023-02-10T08:09:00;57140.97;;;-144.43;52.28
37486;BME280;23341;50.296;18.960;2023-02-10T08:14:05;57857.94;;;-144.43;50.70
37486;BME280;23341;50.296;18.960;2023-02-10T08:19:09;58122.34;;;-144.43;48.81
37486;BME280;23341;50.296;18.960;2023-02-10T08:24:13;57016.81;;;-144.43;51.92
37486;BME280;23341;50.296;18.960;2023-02-10T08:29:18;57775.81;;;-144.43;51.60
37486;BME280;23341;50.296;18.960;2023-02-10T08:34:22;57559.50;;;-144.43;51.25
37486;BME280;23341;50.296;18.960;2023-02-10T08:39:27;58222.50;;;-144.43;50.03
37486;BME280;23341;50.296;18.960;2023-02-10T08:44:32;57557.50;;;-144.43;51.72
37486;BME280;23341;50.296;18.960;2023-02-10T08:49:36;56734.47;;;-144.43;54.04
37486;BME280;23341;50.296;18.960;2023-02-10T08:54:40;56668.38;;;-144.43;54.90
37486;BME280;23341;50.296;18.960;2023-02-10T08:59:45;56964.72;;;-144.43;54.90
37486;BME280;23341;50.296;18.960;2023-02-10T09:04:49;57030.81;;;-144.43;53.64
37486;BME280;23341;50.296;18.960;2023-02-10T09:10:11;57301.16;;;-144.43;53.63
37486;BME280;23341;50.296;18.960;2023-02-10T09:15:16;57777.81;;;-144.43;52.46
37486;BME280;23341;50.296;18.960;2023-02-10T09:20:20;58933.66;;;-144.43;49.46
37486;BME280;23341;50.296;18.960;2023-02-10T09:25:24;58404.78;;;-144.43;49.25
37486;BME280;23341;50.296;18.960;2023-02-10T09:30:29;58943.69;;;-144.43;49.09
37486;BME280;23341;50.296;18.960;2023-02-10T09:35:33;57661.66;;;-144.43;51.43
37486;BME280;23341;50.296;18.960;2023-02-10T09:40:47;57373.25;;;-144.43;52.67
37486;BME280;23341;50.296;18.960;2023-02-10T09:45:58;57211.03;;;-144.43;52.50
37486;BME280;23341;50.296;18.960;2023-02-10T09:51:06;57213.06;;;-144.43;53.74
37486;BME280;23341;50.296;18.960;2023-02-10T09:56:17;57389.28;;;-144.43;53.75
37486;BME280;23341;50.296;18.960;2023-02-10T10:01:26;57677.69;;;-144.43;52.86
37486;BME280;23341;50.296;18.960;2023-02-10T10:06:32;57619.59;;;-144.43;52.94
37486;BME280;23341;50.296;18.960;2023-02-10T10:11:41;57401.31;;;-144.43;53.80
37486;BME280;23341;50.296;18.960;2023-02-10T10:16:57;57261.13;;;-144.43;54.49
37486;BME280;23341;50.296;18.960;2023-02-10T10:22:13;57279.13;;;-144.43;54.02
37486;BME280;23341;50.296;18.960;2023-02-10T10:27:28;57681.69;;;-144.43;53.88
37486;BME280;23341;50.296;18.960;2023-02-10T10:32:43;58158.38;;;-144.43;53.26
37486;BME280;23341;50.296;18.960;2023-02-10T10:37:47;57573.53;;;-144.43;53.02
37486;BME280;23341;50.296;18.960;2023-02-10T10:42:53;57509.44;;;-144.43;55.02
37486;BME280;23341;50.296;18.960;2023-02-10T10:48:07;58382.75;;;-144.43;53.62
37486;BME280;23341;50.296;18.960;2023-02-10T10:53:15;58396.75;;;-144.43;52.41
37486;BME280;23341;50.296;18.960;2023-02-10T10:58:24;58298.59;;;-144.43;53.13
37486;BME280;23341;50.296;18.960;2023-02-10T11:03:30;58144.38;;;-144.43;52.63
37486;BME280;23341;50.296;18.960;2023-02-10T11:08:36;58370.72;;;-144.43;52.89
37486;BME280;23341;50.296;18.960;2023-02-10T11:13:49;58532.97;;;-144.43;53.11
37486;BME280;23341;50.296;18.960;2023-02-10T11:18:57;58272.56;;;-144.43;53.67
37486;BME280;23341;50.296;18.960;2023-02-10T11:24:02;58234.50;;;-144.43;53.36
37486;BME280;23341;50.296;18.960;2023-02-10T11:29:09;58230.50;;;-144.43;53.65
37486;BME280;23341;50.296;18.960;2023-02-10T11:34:19;58230.50;;;-144.43;54.75
37486;BME280;23341;50.296;18.960;2023-02-10T11:39:29;58308.63;;;-144.43;54.67
37486;BME280;23341;50.296;18.960;2023-02-10T11:44:35;58520.97;;;-144.43;54.07
37486;BME280;23341;50.296;18.960;2023-02-10T11:49:44;58905.59;;;-144.43;52.67
37486;BME280;23341;50.296;18.960;2023-02-10T11:54:49;58815.44;;;-144.43;53.24
37486;BME280;23341;50.296;18.960;2023-02-10T12:00:02;58607.09;;;-144.43;53.16
37486;BME280;23341;50.296;18.960;2023-02-10T12:05:22;58226.50;;;-144.43;54.93
37486;BME280;23341;50.296;18.960;2023-02-10T12:10:33;58342.69;;;-144.43;54.94
37486;BME280;23341;50.296;18.960;2023-02-10T12:15:49;58494.91;;;-144.43;55.68
37486;BME280;23341;50.296;18.960;2023-02-10T12:21:11;58486.91;;;-144.43;55.41
37486;BME280;23341;50.296;18.960;2023-02-10T12:26:21;58422.81;;;-144.43;56.01
37486;BME280;23341;50.296;18.960;2023-02-10T12:31:38;58707.28;;;-144.43;55.07
37486;BME280;23341;50.296;18.960;2023-02-10T12:36:52;58619.13;;;-144.43;55.51
37486;BME280;23341;50.296;18.960;2023-02-10T12:42:06;58911.63;;;-144.43;56.02
37486;BME280;23341;50.296;18.960;2023-02-10T12:47:27;58951.69;;;-144.43;55.90
37486;BME280;23341;50.296;18.960;2023-02-10T12:52:41;59009.78;;;-144.43;55.86
37486;BME280;23341;50.296;18.960;2023-02-10T12:57:49;58847.50;;;-144.43;56.77
37486;BME280;23341;50.296;18.960;2023-02-10T13:02:57;59274.25;;;-144.43;56.14
37486;BME280;23341;50.296;18.960;2023-02-10T13:08:07;59372.44;;;-144.43;56.02
37486;BME280;23341;50.296;18.960;2023-02-10T13:13:17;59783.22;;;-144.43;54.84
37486;BME280;23341;50.296;18.960;2023-02-10T13:18:23;59849.34;;;-144.43;54.84
37486;BME280;23341;50.296;18.960;2023-02-10T13:23:37;59438.56;;;-144.43;56.08
37486;BME280;23341;50.296;18.960;2023-02-10T13:28:53;59871.38;;;-144.43;57.60
37486;BME280;23341;50.296;18.960;2023-02-10T13:34:03;59903.47;;;-144.43;57.29
37486;BME280;23341;50.296;18.960;2023-02-10T13:39:16;60454.59;;;-144.43;58.66
37486;BME280;23341;50.296;18.960;2023-02-10T13:44:26;60514.72;;;-144.43;57.63
37486;BME280;23341;50.296;18.960;2023-02-10T13:49:31;61122.03;;;-144.43;57.76
37486;BME280;23341;50.296;18.960;2023-02-10T13:54:36;60883.50;;;-144.43;56.08
37486;BME280;23341;50.296;18.960;2023-02-10T13:59:41;61148.09;;;-144.43;56.70
37486;BME280;23341;50.296;18.960;2023-02-10T14:04:46;61047.88;;;-144.43;57.81
37486;BME280;23341;50.296;18.960;2023-02-10T14:10:06;60901.56;;;-144.43;59.15
37486;BME280;23341;50.296;18.960;2023-02-10T14:15:17;60653.00;;;-144.43;61.78
37486;BME280;23341;50.296;18.960;2023-02-10T14:20:26;60506.69;;;-144.43;61.96
37486;BME280;23341;50.296;18.960;2023-02-10T14:25:36;60214.09;;;-144.43;60.41
37486;BME280;23341;50.296;18.960;2023-02-10T14:30:43;60091.84;;;-144.43;59.56
37486;BME280;23341;50.296;18.960;2023-02-10T14:35:50;59745.16;;;-144.43;60.04
37486;BME280;23341;50.296;18.960;2023-02-10T14:40:57;59747.16;;;-144.43;60.87
37486;BME280;23341;50.296;18.960;2023-02-10T14:46:19;59869.38;;;-144.43;60.14
37486;BME280;23341;50.296;18.960;2023-02-10T14:51:25;59646.97;;;-144.43;60.29
37486;BME280;23341;50.296;18.960;2023-02-10T14:56:30;59899.44;;;-144.43;60.33
37486;BME280;23341;50.296;18.960;2023-02-10T15:01:35;59757.16;;;-144.43;60.09
37486;BME280;23341;50.296;18.960;2023-02-10T15:06:44;59683.03;;;-144.43;60.69
37486;BME280;23341;50.296;18.960;2023-02-10T15:11:52;59789.22;;;-144.43;60.14
37486;BME280;23341;50.296;18.960;2023-02-10T15:17:18;59841.34;;;-144.43;60.92
37486;BME280;23341;50.296;18.960;2023-02-10T15:22:34;59943.53;;;-144.43;60.94
37486;BME280;23341;50.296;18.960;2023-02-10T15:27:40;59943.53;;;-144.43;60.79
37486;BME280;23341;50.296;18.960;2023-02-10T15:32:47;59402.50;;;-144.43;61.33
37486;BME280;23341;50.296;18.960;2023-02-10T15:37:53;59352.41;;;-144.43;61.82
37486;BME280;23341;50.296;18.960;2023-02-10T15:43:03;59035.84;;;-144.43;61.60
37486;BME280;23341;50.296;18.960;2023-02-10T15:48:07;59196.13;;;-144.43;62.54
37486;BME280;23341;50.296;18.960;2023-02-10T15:53:13;59356.41;;;-144.43;62.24
37486;BME280;23341;50.296;18.960;2023-02-10T15:58:23;59061.88;;;-144.43;62.22
37486;BME280;23341;50.296;18.960;2023-02-10T16:03:27;59164.06;;;-144.43;62.75
37486;BME280;23341;50.296;18.960;2023-02-10T16:08:31;59019.81;;;-144.43;63.49
37486;BME280;23341;50.296;18.960;2023-02-10T16:13:37;59111.97;;;-144.43;63.29
37486;BME280;23341;50.296;18.960;2023-02-10T16:18:41;59192.13;;;-144.43;63.96
37486;BME280;23341;50.296;18.960;2023-02-10T16:23:45;59208.13;;;-144.43;64.46
37486;BME280;23341;50.296;18.960;2023-02-10T16:28:51;59178.09;;;-144.43;64.32
37486;BME280;23341;50.296;18.960;2023-02-10T16:33:55;59256.22;;;-144.43;65.33
37486;BME280;23341;50.296;18.960;2023-02-10T16:39:00;59348.41;;;-144.43;66.68
37486;BME280;23341;50.296;18.960;2023-02-10T16:44:05;59264.25;;;-144.43;65.91
37486;BME280;23341;50.296;18.960;2023-02-10T16:49:09;59256.22;;;-144.43;66.21
37486;BME280;23341;50.296;18.960;2023-02-10T16:54:15;59334.38;;;-144.43;67.59
37486;BME280;23341;50.296;18.960;2023-02-10T16:59:20;59306.31;;;-144.43;67.71
37486;BME280;23341;50.296;18.960;2023-02-10T17:04:24;59404.50;;;-144.43;67.91
37486;BME280;23341;50.296;18.960;2023-02-10T17:09:28;59691.03;;;-144.43;67.79
37486;BME280;23341;50.296;18.960;2023-02-10T17:14:34;59528.72;;;-144.43;68.25
37486;BME280;23341;50.296;18.960;2023-02-10T17:19:38;59640.94;;;-144.43;69.02
37486;BME280;23341;50.296;18.960;2023-02-10T17:24:41;59602.88;;;-144.43;69.14
37486;BME280;23341;50.296;18.960;2023-02-10T17:29:47;59701.06;;;-144.43;70.13
37486;BME280;23341;50.296;18.960;2023-02-10T17:34:51;59797.25;;;-144.43;69.64
37486;BME280;23341;50.296;18.960;2023-02-10T17:39:55;59779.22;;;-144.43;70.70
37486;BME280;23341;50.296;18.960;2023-02-10T17:45:15;59773.19;;;-144.43;70.58
37486;BME280;23341;50.296;18.960;2023-02-10T17:50:20;59671.00;;;-144.43;72.26
37486;BME280;23341;50.296;18.960;2023-02-10T17:55:24;59857.38;;;-144.43;71.33
37486;BME280;23341;50.296;18.960;2023-02-10T18:00:29;59959.56;;;-144.43;71.38
37486;BME280;23341;50.296;18.960;2023-02-10T18:05:33;59785.22;;;-144.43;72.66
37486;BME280;23341;50.296;18.960;2023-02-10T18:10:38;59839.31;;;-144.43;72.69
37486;BME280;23341;50.296;18.960;2023-02-10T18:15:43;59833.31;;;-144.43;73.41
37486;BME280;23341;50.296;18.960;2023-02-10T18:20:48;59829.31;;;-144.43;74.15
37486;BME280;23341;50.296;18.960;2023-02-10T18:25:52;59837.31;;;-144.43;74.06
37486;BME280;23341;50.296;18.960;2023-02-10T18:31:00;59871.38;;;-144.43;74.35
37486;BME280;23341;50.296;18.960;2023-02-10T18:36:06;59851.34;;;-144.43;74.68
37486;BME280;23341;50.296;18.960;2023-02-10T18:41:10;59941.53;;;-144.43;73.94
37486;BME280;23341;50.296;18.960;2023-02-10T18:46:16;59831.31;;;-144.43;74.04
37486;BME280;23341;50.296;18.960;2023-02-10T18:51:21;59771.19;;;-144.43;75.00
37486;BME280;23341;50.296;18.960;2023-02-10T18:56:25;59929.50;;;-144.43;73.90
37486;BME280;23341;50.296;18.960;2023-02-10T19:01:30;59556.78;;;-144.43;75.36
37486;BME280;23341;50.296;18.960;2023-02-10T19:06:35;59644.94;;;-144.43;75.47
37486;BME280;23341;50.296;18.960;2023-02-10T19:11:40;59777.22;;;-144.43;74.52
37486;BME280;23341;50.296;18.960;2023-02-10T19:16:47;59580.84;;;-144.43;74.61
37486;BME280;23341;50.296;18.960;2023-02-10T19:21:52;59636.94;;;-144.43;74.71
37486;BME280;23341;50.296;18.960;2023-02-10T19:26:57;59801.25;;;-144.43;74.90
37486;BME280;23341;50.296;18.960;2023-02-10T19:32:02;59658.97;;;-144.43;75.31
37486;BME280;23341;50.296;18.960;2023-02-10T19:37:06;59715.09;;;-144.43;75.02
37486;BME280;23341;50.296;18.960;2023-02-10T19:42:10;59534.75;;;-144.43;75.88
37486;BME280;23341;50.296;18.960;2023-02-10T19:47:15;59430.56;;;-144.43;76.71
37486;BME280;23341;50.296;18.960;2023-02-10T19:52:19;59452.59;;;-144.43;76.28
37486;BME280;23341;50.296;18.960;2023-02-10T19:57:24;59640.94;;;-144.43;76.86
37486;BME280;23341;50.296;18.960;2023-02-10T20:02:30;59646.97;;;-144.43;76.26
37486;BME280;23341;50.296;18.960;2023-02-10T20:07:34;59372.44;;;-144.43;77.64
37486;BME280;23341;50.296;18.960;2023-02-10T20:12:38;59588.84;;;-144.43;76.55
37486;BME280;23341;50.296;18.960;2023-02-10T20:17:44;59472.63;;;-144.43;77.70
37486;BME280;23341;50.296;18.960;2023-02-10T20:22:48;59602.88;;;-144.43;76.73
37486;BME280;23341;50.296;18.960;2023-02-10T20:27:52;59304.31;;;-144.43;78.80
37486;BME280;23341;50.296;18.960;2023-02-10T20:32:57;59262.25;;;-144.43;78.05
37486;BME280;23341;50.296;18.960;2023-02-10T20:38:02;59268.25;;;-144.43;77.92
37486;BME280;23341;50.296;18.960;2023-02-10T20:43:06;59292.28;;;-144.43;77.80
37486;BME280;23341;50.296;18.960;2023-02-10T20:48:12;59130.00;;;-144.43;78.49
37486;BME280;23341;50.296;18.960;2023-02-10T20:53:16;59274.25;;;-144.43;78.34
37486;BME280;23341;50.296;18.960;2023-02-10T20:58:21;59268.25;;;-144.43;78.79
37486;BME280;23341;50.296;18.960;2023-02-10T21:03:28;59344.38;;;-144.43;78.86
37486;BME280;23341;50.296;18.960;2023-02-10T21:08:32;59602.88;;;-144.43;78.25
37486;BME280;23341;50.296;18.960;2023-02-10T21:13:36;59414.53;;;-144.43;77.73
37486;BME280;23341;50.296;18.960;2023-02-10T21:18:42;59172.06;;;-144.43;79.00
37486;BME280;23341;50.296;18.960;2023-02-10T21:23:47;59460.59;;;-144.43;78.83
37486;BME280;23341;50.296;18.960;2023-02-10T21:28:51;59364.44;;;-144.43;77.06
37486;BME280;23341;50.296;18.960;2023-02-10T21:33:58;59174.09;;;-144.43;76.89
37486;BME280;23341;50.296;18.960;2023-02-10T21:39:05;58653.19;;;-144.43;77.62
37486;BME280;23341;50.296;18.960;2023-02-10T21:44:13;58406.78;;;-144.43;78.03
37486;BME280;23341;50.296;18.960;2023-02-10T21:49:20;58224.50;;;-144.43;78.79
37486;BME280;23341;50.296;18.960;2023-02-10T21:54:26;58074.25;;;-144.43;80.01
37486;BME280;23341;50.296;18.960;2023-02-10T21:59:30;57934.06;;;-144.43;81.61
37486;BME280;23341;50.296;18.960;2023-02-10T22:04:35;57793.84;;;-144.43;82.70
37486;BME280;23341;50.296;18.960;2023-02-10T22:09:39;57697.72;;;-144.43;84.16
37486;BME280;23341;50.296;18.960;2023-02-10T22:14:43;57593.56;;;-144.43;85.32
37486;BME280;23341;50.296;18.960;2023-02-10T22:19:49;57701.72;;;-144.43;85.64
37486;BME280;23341;50.296;18.960;2023-02-10T22:24:52;57677.69;;;-144.43;85.17
37486;BME280;23341;50.296;18.960;2023-02-10T22:29:56;57403.31;;;-144.43;87.47
37486;BME280;23341;50.296;18.960;2023-02-10T22:35:03;57501.44;;;-144.43;87.32
37486;BME280;23341;50.296;18.960;2023-02-10T22:40:08;57437.34;;;-144.43;88.43
37486;BME280;23341;50.296;18.960;2023-02-10T22:45:12;57459.38;;;-144.43;87.88
37486;BME280;23341;50.296;18.960;2023-02-10T22:50:17;57573.53;;;-144.43;87.49
37486;BME280;23341;50.296;18.960;2023-02-10T22:55:22;57661.66;;;-144.43;86.90
37486;BME280;23341;50.296;18.960;2023-02-10T23:00:27;57439.34;;;-144.43;88.33
37486;BME280;23341;50.296;18.960;2023-02-10T23:05:32;57557.50;;;-144.43;88.95
37486;BME280;23341;50.296;18.960;2023-02-10T23:10:36;57665.66;;;-144.43;88.44
37486;BME280;23341;50.296;18.960;2023-02-10T23:15:40;57657.66;;;-144.43;87.60
37486;BME280;23341;50.296;18.960;2023-02-10T23:20:45;57469.38;;;-144.43;88.82
37486;BME280;23341;50.296;18.960;2023-02-10T23:25:51;57403.31;;;-144.43;90.83
37486;BME280;23341;50.296;18.960;2023-02-10T23:30:55;57517.47;;;-144.43;89.56
37486;BME280;23341;50.296;18.960;2023-02-10T23:36:03;57593.56;;;-144.43;90.01
37486;BME280;23341;50.296;18.960;2023-02-10T23:41:07;57491.41;;;-144.43;90.31
37486;BME280;23341;50.296;18.960;2023-02-10T23:46:11;57329.19;;;-144.43;91.40
37486;BME280;23341;50.296;18.960;2023-02-10T23:51:18;57419.31;;;-144.43;91.39
37486;BME280;23341;50.296;18.960;2023-02-10T23:56:22;57309.19;;;-144.43;92.95
